Daytona Beach, Florida
Current Conditions -  °F | °C
As of 5:53 AM on Wednesday 26 Nov 2014 (Local Time) from KDAB Reporting Station
Light Rain Light Rain  
Wind Chill: 17°   Ceiling: 700
Heat Index: 17°   Visibility: 7mi
Dew Point: 16°   Wind: 15mph
Humidity: 93%   Direction: 320°NW
Pressure: 29.92"   Gusts: 21mph
Location:  29.2°N, 81.04°W
Report Text: KDAB 261053Z 32013G18KT 7SM -RA BKN007 OVC016 17/16 A2992 RMK AO2 WSHFT 1007 SLP131 P0008 T01670156
Loading
Personal Weather Stations






























Interactive Weather Map New forecast layout! Learn more

10-Day Weather Forecast

Advertisements
Track Severe Weather on mobile